Time;durP1;ratioP1;P1;durP2;ratioP2;P2;SDS_P1;SDS_P2;PMS_P1;PMS_P2;Temp;Humidity;BMP_temperature;BMP_pressure;BME280_temperature;BME280_humidity;BME280_pressure;Samples;Min_cycle;Max_cycle;Signal;HPM_P1;HPM_P2
2020/12/27 00:02:15;;;;;;;1999.90;999.90;;;4.60;99.90;;;;;;5086635;28;20188;-82
2020/12/27 00:04:41;;;;;;;1999.90;999.90;;;4.60;99.90;;;;;;5085669;28;20617;-82
2020/12/27 00:07:09;;;;;;;1999.90;999.90;;;4.60;99.90;;;;;;5067715;28;20171;-83
2020/12/27 00:09:39;;;;;;;1999.90;999.90;;;4.60;99.90;;;;;;5084121;28;20259;-84
2020/12/27 00:12:09;;;;;;;1999.90;999.90;;;4.60;99.90;;;;;;5085238;28;20253;-83
2020/12/27 00:14:35;;;;;;;1999.90;999.90;;;4.50;99.90;;;;;;5084620;28;20163;-83
2020/12/27 00:17:09;;;;;;;1999.90;999.90;;;4.50;99.90;;;;;;5084548;28;20164;-83
2020/12/27 00:19:35;;;;;;;1999.90;999.90;;;4.50;99.90;;;;;;5084052;28;20434;-83
2020/12/27 00:22:01;;;;;;;1999.90;999.90;;;4.60;99.90;;;;;;5065578;28;20160;-82
2020/12/27 00:24:26;;;;;;;1999.90;999.90;;;4.50;99.90;;;;;;5083585;28;20700;-83
2020/12/27 00:26:52;;;;;;;1999.90;999.90;;;4.60;99.90;;;;;;5083437;28;20458;-83
2020/12/27 00:29:18;;;;;;;1999.90;999.90;;;4.60;99.90;;;;;;5083565;28;20167;-82
2020/12/27 00:31:44;;;;;;;1999.90;999.90;;;4.60;99.90;;;;;;5083302;28;20522;-82
2020/12/27 00:34:10;;;;;;;1999.90;999.90;;;4.60;99.90;;;;;;5063003;28;20258;-82
2020/12/27 00:36:35;;;;;;;1999.90;999.90;;;4.60;99.90;;;;;;5065254;28;20168;-82
2020/12/27 00:39:06;;;;;;;1999.90;999.90;;;4.60;99.90;;;;;;5083328;28;20183;-82
2020/12/27 00:41:31;;;;;;;1999.90;999.90;;;4.50;99.90;;;;;;5081931;28;20599;-82
2020/12/27 00:43:57;;;;;;;1999.90;999.90;;;4.50;99.90;;;;;;5082033;28;20166;-82
2020/12/27 00:46:23;;;;;;;1999.90;999.90;;;4.60;99.90;;;;;;5064516;28;20254;-82
2020/12/27 00:48:48;;;;;;;1999.90;999.90;;;4.60;99.90;;;;;;5064522;28;20245;-82
2020/12/27 00:51:22;;;;;;;1999.90;999.90;;;4.50;99.90;;;;;;5081663;28;20479;-82
2020/12/27 00:53:48;;;;;;;1999.90;999.90;;;4.60;99.90;;;;;;5081735;28;20562;-82
2020/12/27 00:56:14;;;;;;;1999.90;999.90;;;4.60;99.90;;;;;;5082373;28;20164;-82
2020/12/27 00:58:40;;;;;;;1999.90;999.90;;;4.60;99.90;;;;;;5082315;28;20187;-82
2020/12/27 01:01:07;;;;;;;1999.90;999.90;;;4.50;99.90;;;;;;5082184;28;20160;-82
2020/12/27 01:03:33;;;;;;;1999.90;999.90;;;4.50;99.90;;;;;;5080619;28;20166;-83
2020/12/27 01:05:59;;;;;;;1999.90;999.90;;;4.60;99.90;;;;;;5081091;28;20167;-83
2020/12/27 01:08:27;;;;;;;1999.90;999.90;;;4.60;99.90;;;;;;5081289;28;20532;-83
2020/12/27 01:10:53;;;;;;;1999.90;999.90;;;4.70;99.90;;;;;;5081416;28;20213;-83
2020/12/27 01:13:19;;;;;;;1999.90;999.90;;;4.60;99.90;;;;;;5064470;28;20167;-83
2020/12/27 01:15:45;;;;;;;1999.90;999.90;;;4.50;99.90;;;;;;5082980;28;20167;-83
2020/12/27 01:18:10;;;;;;;1999.90;999.90;;;4.50;99.90;;;;;;5082973;28;20217;-83
2020/12/27 01:20:37;;;;;;;1999.90;999.90;;;4.50;99.90;;;;;;5066988;28;20264;-83
2020/12/27 01:23:03;;;;;;;1999.90;999.90;;;4.40;99.90;;;;;;5083833;28;20174;-82
2020/12/27 01:25:28;;;;;;;1999.90;999.90;;;4.50;99.90;;;;;;5084239;28;20188;-82
2020/12/27 01:27:54;;;;;;;1999.90;999.90;;;4.50;99.90;;;;;;5084925;28;20171;-82
2020/12/27 01:30:20;;;;;;;1999.90;999.90;;;4.60;99.90;;;;;;5086089;28;20216;-83
2020/12/27 01:32:45;;;;;;;1999.90;999.90;;;4.50;99.90;;;;;;5084708;28;20157;-82
2020/12/27 01:35:11;;;;;;;1999.90;999.90;;;4.50;99.90;;;;;;5085813;28;20167;-82
2020/12/27 01:37:37;;;;;;;1999.90;999.90;;;4.50;99.90;;;;;;5085199;28;20218;-83
2020/12/27 01:40:06;;;;;;;1999.90;999.90;;;4.60;99.90;;;;;;5084836;28;20214;-82
2020/12/27 01:42:31;;;;;;;1999.90;999.90;;;4.60;99.90;;;;;;5084160;28;20160;-82
2020/12/27 01:44:57;;;;;;;1999.90;999.90;;;4.60;99.90;;;;;;5084476;28;20213;-84
2020/12/27 01:47:23;;;;;;;1999.90;999.90;;;4.60;99.90;;;;;;5066535;28;20186;-83
2020/12/27 01:49:52;;;;;;;1999.90;999.90;;;4.60;99.90;;;;;;5083753;28;20164;-83
2020/12/27 01:52:18;;;;;;;1999.90;999.90;;;4.60;99.90;;;;;;5066476;28;20168;-82
2020/12/27 01:54:44;;;;;;;1999.90;999.90;;;4.60;99.90;;;;;;5084351;28;20215;-83
2020/12/27 01:57:19;;;;;;;1999.90;999.90;;;4.70;99.90;;;;;;5066447;28;20183;-83
2020/12/27 01:59:45;;;;;;;1999.90;999.90;;;4.70;99.90;;;;;;5083710;28;20156;-82
2020/12/27 02:02:13;;;;;;;1999.90;999.90;;;4.70;99.90;;;;;;5083978;28;20643;-83
2020/12/27 02:04:40;;;;;;;1999.90;999.90;;;4.70;99.90;;;;;;5086227;28;20736;-83
2020/12/27 02:07:07;;;;;;;1999.90;999.90;;;4.60;99.90;;;;;;5067619;28;20183;-82
2020/12/27 02:09:35;;;;;;;1999.90;999.90;;;4.70;99.90;;;;;;5086346;28;20159;-83
2020/12/27 02:12:09;;;;;;;1999.90;999.90;;;4.70;99.90;;;;;;5084064;28;20168;-83
2020/12/27 02:14:36;;;;;;;1999.90;999.90;;;4.70;99.90;;;;;;5066517;28;20164;-83
2020/12/27 02:17:06;;;;;;;1999.90;999.90;;;4.70;99.90;;;;;;5084579;28;20160;-83
2020/12/27 02:19:33;;;;;;;1999.90;999.90;;;4.70;99.90;;;;;;5082939;28;20175;-82
2020/12/27 02:22:02;;;;;;;1999.90;999.90;;;4.70;99.90;;;;;;5083801;28;20164;-82
2020/12/27 02:24:27;;;;;;;1999.90;999.90;;;4.60;99.90;;;;;;5083360;28;20619;-82
2020/12/27 02:27:01;;;;;;;1999.90;999.90;;;4.60;99.90;;;;;;5082907;28;20167;-83
2020/12/27 02:29:27;;;;;;;1999.90;999.90;;;4.50;99.90;;;;;;5066461;28;20167;-83
2020/12/27 02:31:56;;;;;;;1999.90;999.90;;;4.60;99.90;;;;;;5069318;28;20172;-82
2020/12/27 02:34:23;;;;;;;1999.90;999.90;;;4.60;99.90;;;;;;5067439;28;20199;-83
2020/12/27 02:36:49;;;;;;;1999.90;999.90;;;4.60;99.90;;;;;;5085234;28;20194;-82
2020/12/27 02:39:17;;;;;;;1999.90;999.90;;;4.60;99.90;;;;;;5068361;28;20569;-83
2020/12/27 02:41:47;;;;;;;1999.90;999.90;;;4.60;99.90;;;;;;5086315;28;20307;-83
2020/12/27 02:44:12;;;;;;;1999.90;999.90;;;4.60;99.90;;;;;;5085919;28;20203;-82
2020/12/27 02:46:38;;;;;;;1999.90;999.90;;;4.60;99.90;;;;;;5085218;28;20162;-83
2020/12/27 02:49:03;;;;;;;1999.90;999.90;;;4.60;99.90;;;;;;5085165;28;20168;-83
2020/12/27 02:51:29;;;;;;;1999.90;999.90;;;4.60;99.90;;;;;;5085070;28;20225;-83
2020/12/27 02:53:56;;;;;;;1999.90;999.90;;;4.50;99.90;;;;;;5067093;28;20240;-82
2020/12/27 02:56:24;;;;;;;1999.90;999.90;;;4.50;99.90;;;;;;5067556;28;20168;-84
2020/12/27 02:58:51;;;;;;;1999.90;999.90;;;4.50;99.90;;;;;;5068086;28;20191;-84
2020/12/27 03:01:17;;;;;;;1999.90;999.90;;;4.50;99.90;;;;;;5086085;28;20175;-83
2020/12/27 03:03:43;;;;;;;1999.90;999.90;;;4.50;99.90;;;;;;5085725;28;20160;-83
2020/12/27 03:06:09;;;;;;;1999.90;999.90;;;4.50;99.90;;;;;;5051193;28;20413;-83
2020/12/27 03:08:35;;;;;;;1999.90;999.90;;;4.50;99.90;;;;;;5085491;28;20653;-82
2020/12/27 03:11:01;;;;;;;1999.90;999.90;;;4.50;99.90;;;;;;5085393;28;20214;-83
2020/12/27 03:13:28;;;;;;;1999.90;999.90;;;4.60;99.90;;;;;;5067298;28;20222;-82
2020/12/27 03:15:54;;;;;;;1999.90;999.90;;;4.50;99.90;;;;;;5067767;28;20164;-83
2020/12/27 03:18:23;;;;;;;1999.90;999.90;;;4.60;99.90;;;;;;5085498;28;20273;-83
2020/12/27 03:20:50;;;;;;;1999.90;999.90;;;4.60;99.90;;;;;;5085789;28;20239;-82
2020/12/27 03:23:16;;;;;;;1999.90;999.90;;;4.60;99.90;;;;;;5086026;28;20166;-83
2020/12/27 03:25:42;;;;;;;1999.90;999.90;;;4.60;99.90;;;;;;5085100;28;20549;-82
2020/12/27 03:28:08;;;;;;;1999.90;999.90;;;4.60;99.90;;;;;;5085221;28;20198;-82
2020/12/27 03:30:34;;;;;;;1999.90;999.90;;;4.60;99.90;;;;;;5068028;28;20635;-83
2020/12/27 03:32:59;;;;;;;1999.90;999.90;;;4.60;99.90;;;;;;5084478;28;20164;-83
2020/12/27 03:35:25;;;;;;;1999.90;999.90;;;4.60;99.90;;;;;;5084361;28;20164;-83
2020/12/27 03:37:51;;;;;;;1999.90;999.90;;;4.70;99.90;;;;;;5084225;28;20183;-83
2020/12/27 03:40:17;;;;;;;1999.90;999.90;;;4.70;99.90;;;;;;5067356;28;20229;-83
2020/12/27 03:42:43;;;;;;;1999.90;999.90;;;4.70;99.90;;;;;;5066921;28;20164;-83
2020/12/27 03:45:09;;;;;;;1999.90;999.90;;;4.70;99.90;;;;;;5083266;28;20409;-83
2020/12/27 03:47:34;;;;;;;1999.90;999.90;;;4.80;99.90;;;;;;5065435;28;20245;-84
2020/12/27 03:53:11;;;;;;;;;;;;;;;;;;;;;
2020/12/27 03:55:41;;;;;;;1999.90;999.90;;;4.70;99.90;;;;;;5089101;28;20209;-84
2020/12/27 03:58:06;;;;;;;1999.90;999.90;;;4.70;99.90;;;;;;5089779;28;20190;-84
2020/12/27 04:00:32;;;;;;;1999.90;999.90;;;4.80;99.90;;;;;;5089846;28;20151;-84
2020/12/27 04:02:58;;;;;;;1999.90;999.90;;;4.80;99.90;;;;;;5089820;28;20181;-84
2020/12/27 04:05:24;;;;;;;1999.90;999.90;;;4.70;99.90;;;;;;5072355;28;20186;-84
2020/12/27 04:07:50;;;;;;;1999.90;999.90;;;4.70;99.90;;;;;;5090405;28;20190;-84
2020/12/27 04:10:18;;;;;;;1999.90;999.90;;;4.60;99.90;;;;;;5089573;28;20417;-85
2020/12/27 04:12:46;;;;;;;1999.90;999.90;;;4.60;99.90;;;;;;5090029;28;20413;-84
2020/12/27 04:15:12;;;;;;;1999.90;999.90;;;4.60;99.90;;;;;;5089300;28;20172;-84
2020/12/27 04:17:38;;;;;;;1999.90;999.90;;;4.50;99.90;;;;;;5089941;28;20164;-85
2020/12/27 04:20:04;;;;;;;1999.90;999.90;;;4.50;99.90;;;;;;5072181;28;20164;-84
2020/12/27 04:26:22;;;;;;;1999.90;999.90;;;4.40;99.90;;;;;;5044552;28;20180;-85
2020/12/27 04:28:53;;;;;;;1999.90;999.90;;;4.40;99.90;;;;;;5071721;28;20163;-84
2020/12/27 04:31:20;;;;;;;1999.90;999.90;;;4.40;99.90;;;;;;5089662;28;20523;-84
2020/12/27 04:33:49;;;;;;;1999.90;999.90;;;4.40;99.90;;;;;;5071691;28;20171;-84
2020/12/27 04:36:19;;;;;;;1999.90;999.90;;;4.40;99.90;;;;;;5089685;28;20673;-84
2020/12/27 04:38:45;;;;;;;1999.90;999.90;;;4.40;99.90;;;;;;5090090;28;20184;-85
2020/12/27 04:41:14;;;;;;;1999.90;999.90;;;4.40;99.90;;;;;;5072185;28;20624;-85
2020/12/27 04:43:47;;;;;;;1999.90;999.90;;;4.40;99.90;;;;;;5089393;28;20155;-85
2020/12/27 04:46:14;;;;;;;1999.90;999.90;;;4.40;99.90;;;;;;5089345;28;20167;-84
2020/12/27 04:48:42;;;;;;;1999.90;999.90;;;4.40;99.90;;;;;;5071638;28;20173;-84
2020/12/27 04:51:12;;;;;;;1999.90;999.90;;;4.40;99.90;;;;;;5089273;28;20167;-84
2020/12/27 04:53:42;;;;;;;1999.90;999.90;;;4.50;99.90;;;;;;5071619;28;20227;-84
2020/12/27 04:56:08;;;;;;;1999.90;999.90;;;4.40;99.90;;;;;;5088914;28;20180;-85
2020/12/27 04:58:34;;;;;;;1999.90;999.90;;;4.40;99.90;;;;;;5070880;28;20226;-84
2020/12/27 05:01:08;;;;;;;1999.90;999.90;;;4.40;99.90;;;;;;5074112;28;20168;-84
2020/12/27 05:03:33;;;;;;;1999.90;999.90;;;4.60;99.90;;;;;;5078587;28;20163;-85
2020/12/27 05:05:59;;;;;;;1999.90;999.90;;;4.50;99.90;;;;;;5077587;28;20159;-84
2020/12/27 05:08:24;;;;;;;1999.90;999.90;;;4.50;99.90;;;;;;5095912;28;20178;-84
2020/12/27 05:10:57;;;;;;;1999.90;999.90;;;4.50;99.90;;;;;;5096134;28;20652;-84
2020/12/27 05:13:23;;;;;;;1999.90;999.90;;;4.50;99.90;;;;;;5078105;28;20180;-84
2020/12/27 05:15:49;;;;;;;1999.90;999.90;;;4.50;99.90;;;;;;5095510;28;20163;-84
2020/12/27 05:18:14;;;;;;;1999.90;999.90;;;4.50;99.90;;;;;;5078173;28;20187;-85
2020/12/27 05:20:43;;;;;;;1999.90;999.90;;;4.50;99.90;;;;;;5095124;28;20218;-84
2020/12/27 05:23:26;;;;;;;1999.90;999.90;;;4.50;99.90;;;;;;5078377;28;20163;-84
2020/12/27 05:25:55;;;;;;;1999.90;999.90;;;4.50;99.90;;;;;;5096132;28;20273;-85
2020/12/27 05:28:42;;;;;;;1999.90;999.90;;;4.50;99.90;;;;;;5094772;28;20167;-85
2020/12/27 05:31:17;;;;;;;1999.90;999.90;;;4.60;99.90;;;;;;5094912;28;20168;-84
2020/12/27 05:34:08;;;;;;;1999.90;999.90;;;4.60;99.90;;;;;;5095331;28;20160;-84
2020/12/27 05:36:44;;;;;;;1999.90;999.90;;;4.60;99.90;;;;;;5093147;28;20169;-84
2020/12/27 05:39:13;;;;;;;1999.90;999.90;;;4.60;99.90;;;;;;5095385;28;20171;-84
2020/12/27 05:41:38;;;;;;;1999.90;999.90;;;4.60;99.90;;;;;;5077877;28;20171;-84
2020/12/27 05:44:04;;;;;;;1999.90;999.90;;;4.60;99.90;;;;;;5095689;28;20156;-84
2020/12/27 05:46:33;;;;;;;1999.90;999.90;;;4.70;99.90;;;;;;5078137;28;20182;-84
2020/12/27 05:48:59;;;;;;;1999.90;999.90;;;4.70;99.90;;;;;;5077700;28;20197;-84
2020/12/27 05:51:26;;;;;;;1999.90;999.90;;;4.60;99.90;;;;;;5095358;28;20167;-85
2020/12/27 05:54:53;;;;;;;1999.90;999.90;;;4.70;99.90;;;;;;5095881;28;20171;-84
2020/12/27 05:57:31;;;;;;;1999.90;999.90;;;4.60;99.90;;;;;;5014265;28;20198;-84
2020/12/27 06:00:01;;;;;;;1999.90;999.90;;;4.60;99.90;;;;;;5013287;28;20162;-85
2020/12/27 06:02:40;;;;;;;1999.90;999.90;;;4.60;99.90;;;;;;5061205;28;20180;-84
2020/12/27 06:05:12;;;;;;;1999.90;999.90;;;4.60;99.90;;;;;;5094951;28;20152;-84
2020/12/27 06:07:44;;;;;;;1999.90;999.90;;;4.60;99.90;;;;;;5095155;28;20215;-84
2020/12/27 06:10:20;;;;;;;1999.90;999.90;;;4.60;99.90;;;;;;5094965;28;20182;-84
2020/12/27 06:12:57;;;;;;;1999.90;999.90;;;4.70;99.90;;;;;;5074448;28;20262;-85
2020/12/27 06:15:28;;;;;;;1999.90;999.90;;;4.70;99.90;;;;;;5091876;28;20176;-84
2020/12/27 06:17:56;;;;;;;1999.90;999.90;;;4.60;99.90;;;;;;5073415;28;20183;-84
2020/12/27 06:20:22;;;;;;;1999.90;999.90;;;4.60;99.90;;;;;;5091071;28;20190;-84
2020/12/27 06:22:50;;;;;;;1999.90;999.90;;;4.70;99.90;;;;;;5092130;28;20163;-84
2020/12/27 06:25:28;;;;;;;1999.90;999.90;;;4.70;99.90;;;;;;5091900;28;20466;-84
2020/12/27 06:27:55;;;;;;;1999.90;999.90;;;4.60;99.90;;;;;;5091762;28;20187;-85
2020/12/27 06:30:23;;;;;;;1999.90;999.90;;;4.60;99.90;;;;;;5092446;28;20159;-84
2020/12/27 06:32:59;;;;;;;1999.90;999.90;;;4.70;99.90;;;;;;5091428;28;20221;-84
2020/12/27 06:35:36;;;;;;;1999.90;999.90;;;4.60;99.90;;;;;;5073107;28;20170;-84
2020/12/27 06:38:19;;;;;;;1999.90;999.90;;;4.70;99.90;;;;;;5073480;28;20175;-84
2020/12/27 06:40:48;;;;;;;1999.90;999.90;;;4.60;99.90;;;;;;5073500;28;20166;-84
2020/12/27 06:43:18;;;;;;;1999.90;999.90;;;4.60;99.90;;;;;;5073408;28;20160;-84
2020/12/27 06:45:47;;;;;;;1999.90;999.90;;;4.60;99.90;;;;;;5091125;28;20156;-84
2020/12/27 06:48:34;;;;;;;1999.90;999.90;;;4.60;99.90;;;;;;5073011;28;20172;-84
2020/12/27 06:51:00;;;;;;;1999.90;999.90;;;4.60;99.90;;;;;;5091125;28;20239;-84
2020/12/27 06:54:16;;;;;;;;;;;;;;;;;;;;;
2020/12/27 06:56:56;;;;;;;1999.90;999.90;;;4.60;99.90;;;;;;5090642;28;20211;-84
2020/12/27 07:00:03;;;;;;;1999.90;999.90;;;4.60;99.90;;;;;;5090108;28;20219;-84
2020/12/27 07:03:06;;;;;;;1999.90;999.90;;;4.60;99.90;;;;;;5072520;28;20210;-84
2020/12/27 07:05:34;;;;;;;1999.90;999.90;;;4.60;99.90;;;;;;5072497;28;20175;-84
2020/12/27 07:08:04;;;;;;;1999.90;999.90;;;4.60;99.90;;;;;;5090193;28;20167;-84
2020/12/27 07:10:35;;;;;;;1999.90;999.90;;;4.60;99.90;;;;;;5090746;28;20159;-84
2020/12/27 07:13:11;;;;;;;1999.90;999.90;;;4.60;99.90;;;;;;5068778;28;20233;-84
2020/12/27 07:15:46;;;;;;;1999.90;999.90;;;4.60;99.90;;;;;;5085762;28;20147;-84
2020/12/27 07:18:11;;;;;;;1999.90;999.90;;;4.60;99.90;;;;;;5072811;28;20199;-84
2020/12/27 07:20:43;;;;;;;1999.90;999.90;;;4.60;99.90;;;;;;5090297;28;20206;-84
2020/12/27 07:26:43;;;;;;;1999.90;999.90;;;4.60;99.90;;;;;;5048157;28;20185;-84
2020/12/27 07:32:39;;;;;;;1999.90;999.90;;;4.60;99.90;;;;;;5065009;28;20182;-83
2020/12/27 07:35:11;;;;;;;1999.90;999.90;;;4.60;99.90;;;;;;5090010;28;20215;-84
2020/12/27 07:37:42;;;;;;;1999.90;999.90;;;4.60;99.90;;;;;;5090070;28;20172;-83
2020/12/27 07:40:17;;;;;;;1999.90;999.90;;;4.70;99.90;;;;;;5071905;28;20179;-84
2020/12/27 07:42:45;;;;;;;1999.90;999.90;;;4.70;99.90;;;;;;5089830;28;20156;-84
2020/12/27 07:45:20;;;;;;;1999.90;999.90;;;4.70;99.90;;;;;;5072059;28;20171;-84
2020/12/27 07:47:45;;;;;;;1999.90;999.90;;;4.70;99.90;;;;;;5072801;28;20207;-84
2020/12/27 07:50:14;;;;;;;1999.90;999.90;;;4.70;99.90;;;;;;5089789;28;20190;-84
2020/12/27 07:52:44;;;;;;;1999.90;999.90;;;4.70;99.90;;;;;;5068850;28;20251;-83
2020/12/27 07:55:34;;;;;;;1999.90;999.90;;;4.80;99.90;;;;;;5084739;28;20167;-83
2020/12/27 07:58:02;;;;;;;1999.90;999.90;;;4.80;99.90;;;;;;5068894;28;20249;-83
2020/12/27 08:00:53;;;;;;;1999.90;999.90;;;4.90;99.90;;;;;;5089524;28;20156;-83
2020/12/27 08:03:54;;;;;;;;;;;;;;;;;;;;;
2020/12/27 08:06:21;;;;;;;1999.90;999.90;;;4.80;99.90;;;;;;5090673;28;20164;-83
2020/12/27 08:08:47;;;;;;;1999.90;999.90;;;4.80;99.90;;;;;;5091265;28;20167;-84
2020/12/27 08:11:23;;;;;;;1999.90;999.90;;;4.90;99.90;;;;;;5091180;28;20206;-83
2020/12/27 08:13:54;;;;;;;1999.90;999.90;;;5.00;99.90;;;;;;5087522;28;20214;-83
2020/12/27 08:16:21;;;;;;;1999.90;999.90;;;5.00;99.90;;;;;;5090834;28;20179;-83
2020/12/27 08:18:46;;;;;;;1999.90;999.90;;;4.90;99.90;;;;;;5086959;28;20217;-83
2020/12/27 08:21:18;;;;;;;1999.90;999.90;;;4.90;99.90;;;;;;5069874;28;20164;-83
2020/12/27 08:24:17;;;;;;;1999.90;999.90;;;4.90;99.90;;;;;;5091183;28;20144;-83
2020/12/27 08:26:45;;;;;;;1999.90;999.90;;;4.90;99.90;;;;;;5090299;28;20152;-83
2020/12/27 08:29:15;;;;;;;1999.90;999.90;;;4.90;99.90;;;;;;5072783;28;20258;-83
2020/12/27 08:31:42;;;;;;;1999.90;999.90;;;4.90;99.90;;;;;;5073079;28;20535;-84
2020/12/27 08:34:19;;;;;;;1999.90;999.90;;;4.90;99.90;;;;;;5087667;28;20163;-83
2020/12/27 08:36:53;;;;;;;1999.90;999.90;;;4.90;99.90;;;;;;5090485;28;20183;-84
2020/12/27 08:39:46;;;;;;;1999.90;999.90;;;4.90;99.90;;;;;;5086465;28;20189;-84
2020/12/27 08:46:39;;;;;;;1999.90;999.90;;;5.00;99.90;;;;;;5090068;28;20179;-83
2020/12/27 08:49:51;;;;;;;1999.90;999.90;;;5.00;99.90;;;;;;5088712;28;20180;-83
2020/12/27 08:52:27;;;;;;;1999.90;999.90;;;5.00;99.90;;;;;;5048042;28;20244;-83
2020/12/27 09:01:37;;;;;;;1999.90;999.90;;;5.00;99.90;;;;;;5028958;28;20560;-84
2020/12/27 09:04:36;;;;;;;1999.90;999.90;;;5.00;99.90;;;;;;5010983;28;20281;-83
2020/12/27 09:07:40;;;;;;;1999.90;999.90;;;5.00;99.90;;;;;;5028750;28;20178;-84
2020/12/27 09:10:26;;;;;;;1999.90;999.90;;;5.10;99.90;;;;;;5012890;28;20219;-84
2020/12/27 09:13:08;;;;;;;1999.90;999.90;;;5.10;99.90;;;;;;5028932;28;20218;-83
2020/12/27 09:15:43;;;;;;;1999.90;999.90;;;5.10;99.90;;;;;;5089859;28;20144;-83
2020/12/27 09:18:30;;;;;;;1999.90;999.90;;;5.10;99.90;;;;;;5089308;28;20210;-83
2020/12/27 09:21:03;;;;;;;1999.90;999.90;;;5.10;99.90;;;;;;5072684;28;20171;-85
2020/12/27 09:23:29;;;;;;;1999.90;999.90;;;5.20;99.90;;;;;;5071768;28;20164;-84
2020/12/27 09:26:11;;;;;;;1999.90;999.90;;;5.10;99.90;;;;;;5090216;28;20178;-83
2020/12/27 09:28:39;;;;;;;1999.90;999.90;;;5.10;99.90;;;;;;5072171;28;20623;-83
2020/12/27 09:31:07;;;;;;;1999.90;999.90;;;5.20;99.90;;;;;;5090169;28;20164;-84
2020/12/27 09:33:36;;;;;;;1999.90;999.90;;;5.30;99.90;;;;;;5090640;28;20164;-83
2020/12/27 09:36:06;;;;;;;1999.90;999.90;;;5.20;99.90;;;;;;5088930;28;20175;-83
2020/12/27 09:38:37;;;;;;;1999.90;999.90;;;5.30;99.90;;;;;;5089290;28;20184;-84
2020/12/27 09:41:10;;;;;;;1999.90;999.90;;;5.30;99.90;;;;;;5088723;28;20156;-83
2020/12/27 09:43:48;;;;;;;1999.90;999.90;;;5.30;99.90;;;;;;5089506;28;20156;-84
2020/12/27 09:46:51;;;;;;;1999.90;999.90;;;5.30;99.90;;;;;;5089695;28;20164;-83
2020/12/27 09:49:33;;;;;;;1999.90;999.90;;;5.20;99.90;;;;;;5075959;28;20173;-84
2020/12/27 09:52:08;;;;;;;1999.90;999.90;;;5.30;99.90;;;;;;5172669;22;20265;-81
2020/12/27 09:54:38;;;;;;;1999.90;999.90;;;5.20;99.90;;;;;;5081775;28;20682;-82
2020/12/27 09:57:22;;;;;;;1999.90;999.90;;;5.20;99.90;;;;;;5081608;28;20168;-81
2020/12/27 09:59:53;;;;;;;1999.90;999.90;;;5.30;99.90;;;;;;5081946;28;20172;-81
2020/12/27 10:02:22;;;;;;;1999.90;999.90;;;5.30;99.90;;;;;;5063754;28;20155;-81
2020/12/27 10:04:50;;;;;;;1999.90;999.90;;;5.30;99.90;;;;;;5063433;28;20168;-81
2020/12/27 10:07:22;;;;;;;1999.90;999.90;;;5.30;99.90;;;;;;5063657;28;20175;-80
2020/12/27 10:09:56;;;;;;;1999.90;999.90;;;5.30;99.90;;;;;;5063419;28;20171;-81
2020/12/27 10:12:33;;;;;;;1999.90;999.90;;;5.30;99.90;;;;;;5063079;28;20221;-81
2020/12/27 10:15:03;;;;;;;1999.90;999.90;;;5.30;99.90;;;;;;5080973;28;20152;-81
2020/12/27 10:17:32;;;;;;;1999.90;999.90;;;5.40;99.90;;;;;;5081367;28;20199;-81
2020/12/27 10:19:58;;;;;;;1999.90;999.90;;;5.40;99.90;;;;;;5063234;28;20199;-81
2020/12/27 10:22:28;;;;;;;1999.90;999.90;;;5.40;99.90;;;;;;5081551;28;20243;-81
2020/12/27 10:24:57;;;;;;;1999.90;999.90;;;5.40;99.90;;;;;;5063505;28;20171;-81
2020/12/27 10:27:34;;;;;;;1999.90;999.90;;;5.40;99.90;;;;;;5063187;28;20164;-81
2020/12/27 10:30:00;;;;;;;1999.90;999.90;;;5.40;99.90;;;;;;5063722;28;20160;-82
2020/12/27 10:32:26;;;;;;;1999.90;999.90;;;5.50;99.90;;;;;;5063549;28;20313;-80
2020/12/27 10:34:52;;;;;;;1999.90;999.90;;;5.50;99.90;;;;;;5081429;28;20221;-81
2020/12/27 10:37:18;;;;;;;1999.90;999.90;;;5.60;99.90;;;;;;5063454;28;20406;-80
2020/12/27 10:39:46;;;;;;;1999.90;999.90;;;5.60;99.90;;;;;;5080239;28;20438;-81
2020/12/27 10:42:18;;;;;;;1999.90;999.90;;;5.70;99.90;;;;;;5062289;28;20202;-81
2020/12/27 10:44:46;;;;;;;1999.90;999.90;;;5.70;99.90;;;;;;5080248;28;20190;-80
2020/12/27 10:47:19;;;;;;;1999.90;999.90;;;5.60;99.90;;;;;;5079521;28;20437;-80
2020/12/27 10:49:45;;;;;;;1999.90;999.90;;;5.60;99.90;;;;;;5061508;28;20162;-81
2020/12/27 10:52:23;;;;;;;1999.90;999.90;;;5.70;99.90;;;;;;5055025;28;20199;-80
2020/12/27 10:54:57;;;;;;;1999.90;999.90;;;5.70;99.90;;;;;;5062294;28;20425;-81
2020/12/27 10:57:31;;;;;;;1999.90;999.90;;;5.70;99.90;;;;;;5062227;28;20187;-80
2020/12/27 10:59:57;;;;;;;1999.90;999.90;;;5.70;99.90;;;;;;5060270;28;20818;-81
2020/12/27 11:02:44;;;;;;;1999.90;999.90;;;5.70;99.90;;;;;;5080034;28;20188;-81
2020/12/27 11:05:10;;;;;;;1999.90;999.90;;;5.70;99.90;;;;;;5080172;28;20160;-81
2020/12/27 11:07:38;;;;;;;1999.90;999.90;;;5.70;99.90;;;;;;5062404;28;20568;-81
2020/12/27 11:10:10;;;;;;;1999.90;999.90;;;5.70;99.90;;;;;;5080056;28;20905;-81
2020/12/27 11:12:39;;;;;;;1999.90;999.90;;;5.80;99.90;;;;;;5062843;28;20294;-81
2020/12/27 11:15:05;;;;;;;1999.90;999.90;;;5.70;99.90;;;;;;5079849;28;20219;-80
2020/12/27 11:17:31;;;;;;;1999.90;999.90;;;5.70;99.90;;;;;;5061469;28;20203;-81
2020/12/27 11:20:15;;;;;;;1999.90;999.90;;;5.80;99.90;;;;;;5079155;28;20430;-80
2020/12/27 11:22:54;;;;;;;1999.90;999.90;;;5.80;99.90;;;;;;5062085;28;20409;-81
2020/12/27 11:25:39;;;;;;;;;;;;;;;;;;;;;
2020/12/27 11:28:20;;;;;;;1999.90;999.90;;;5.90;99.90;;;;;;5079344;28;20242;-81
2020/12/27 11:30:46;;;;;;;1999.90;999.90;;;5.90;99.90;;;;;;5079732;28;20144;-81
2020/12/27 11:33:30;;;;;;;1999.90;999.90;;;6.00;99.90;;;;;;5079921;28;20709;-80
2020/12/27 11:35:58;;;;;;;1999.90;999.90;;;6.00;99.90;;;;;;5060853;28;20226;-81
2020/12/27 11:38:24;;;;;;;1999.90;999.90;;;6.00;99.90;;;;;;5061377;28;20249;-80
2020/12/27 11:40:59;;;;;;;;;;;;;;;;;;;;;
2020/12/27 11:43:28;;;;;;;1999.90;999.90;;;5.90;99.90;;;;;;5076791;28;20500;-81
2020/12/27 11:45:58;;;;;;;1999.90;999.90;;;5.90;99.90;;;;;;5061285;28;20164;-81
2020/12/27 11:48:53;;;;;;;1999.90;999.90;;;5.90;99.90;;;;;;5079573;28;20150;-81
2020/12/27 11:51:29;;;;;;;1999.90;999.90;;;5.90;99.90;;;;;;5055278;28;20669;-83
2020/12/27 11:54:01;;;;;;;1999.90;999.90;;;5.80;99.90;;;;;;5061975;28;20183;-82
2020/12/27 11:56:27;;;;;;;1999.90;999.90;;;5.90;99.90;;;;;;5080054;28;20642;-81
2020/12/27 11:58:52;;;;;;;1999.90;999.90;;;5.90;99.90;;;;;;5061548;28;20203;-81
2020/12/27 12:01:25;;;;;;;1999.90;999.90;;;5.90;99.90;;;;;;5079231;28;20168;-81
2020/12/27 12:03:56;;;;;;;1999.90;999.90;;;5.90;99.90;;;;;;5061859;28;20398;-83
2020/12/27 12:06:25;;;;;;;1999.90;999.90;;;6.00;99.90;;;;;;5061701;28;20249;-80
2020/12/27 12:08:51;;;;;;;1999.90;999.90;;;6.00;99.90;;;;;;5079140;28;20164;-81
2020/12/27 12:11:17;;;;;;;1999.90;999.90;;;6.00;99.90;;;;;;5060295;28;20175;-81
2020/12/27 12:13:50;;;;;;;1999.90;999.90;;;5.90;99.90;;;;;;5078832;28;20530;-80
2020/12/27 12:16:29;;;;;;;1999.90;999.90;;;6.00;99.90;;;;;;5078877;28;20156;-80
2020/12/27 12:18:56;;;;;;;1999.90;999.90;;;6.00;99.90;;;;;;5062133;28;20181;-80
2020/12/27 12:21:22;;;;;;;1999.90;999.90;;;5.90;99.90;;;;;;5078403;28;20164;-80
2020/12/27 12:23:50;;;;;;;1999.90;999.90;;;5.90;99.90;;;;;;5078534;28;20211;-80
2020/12/27 12:26:27;;;;;;;1999.90;999.90;;;6.00;99.90;;;;;;5060473;28;20228;-80
2020/12/27 12:28:57;;;;;;;1999.90;999.90;;;5.90;99.90;;;;;;5060934;28;20167;-80
2020/12/27 12:31:24;;;;;;;1999.90;999.90;;;5.90;99.90;;;;;;5079096;28;20255;-81
2020/12/27 12:33:50;;;;;;;1999.90;999.90;;;5.90;99.90;;;;;;5060573;28;20258;-80
2020/12/27 12:36:24;;;;;;;1999.90;999.90;;;5.80;99.90;;;;;;5061028;28;20179;-81
2020/12/27 12:38:53;;;;;;;1999.90;999.90;;;5.80;99.90;;;;;;5078585;28;20199;-80
2020/12/27 12:41:24;;;;;;;1999.90;999.90;;;5.80;99.90;;;;;;5078627;28;20186;-80
2020/12/27 12:43:50;;;;;;;1999.90;999.90;;;5.70;99.90;;;;;;5061698;28;20669;-80
2020/12/27 12:46:21;;;;;;;1999.90;999.90;;;5.70;99.90;;;;;;5078818;28;20164;-80
2020/12/27 12:48:48;;;;;;;1999.90;999.90;;;5.70;99.90;;;;;;5078327;28;20395;-80
2020/12/27 12:51:19;;;;;;;1999.90;999.90;;;5.70;99.90;;;;;;5060040;28;20184;-80
2020/12/27 12:53:45;;;;;;;1999.90;999.90;;;5.80;99.90;;;;;;5079074;28;20546;-80
2020/12/27 12:56:11;;;;;;;1999.90;999.90;;;5.80;99.90;;;;;;5079228;28;20172;-80
2020/12/27 12:58:37;;;;;;;1999.90;999.90;;;5.80;99.90;;;;;;5061279;28;20215;-80